OS73 weather

CLOSED Al Al Airport
Quneitra Governorate, Syria

Public forecast

Using degrees Celsius for public forecast. Weather courtesy of forecast.io.

METAR (pilot weather report)

Report is more than 2 hours old.

Closest report is Ben Ya'akov Airport, 13.8 nm (25.5 km) NNW. Retrieved 2019/08/21 14:50 UTC (3 hours ago):

LLIB 211450Z 32011KT CAVOK 31/14 Q1010

TAF (pilot weather forecast)

Forecast is more than 6 hours old.

Closest forecast is Ben Ya'akov Airport, 13.8 nm (25.5 km) NNW. Retrieved 2019/08/21 12:00 UTC (6 hours ago):

TAF LLIB 211105Z 2112/2212 32012KT CAVOK BECMG 2119/2121 VRB03KT PROB40 2200/2205 6000 SCT015 BECMG 2206/2208 17006KT TX34/2112Z TN20/2203Z